Time;durP1;ratioP1;P1;durP2;ratioP2;P2;SDS_P1;SDS_P2;PMS_P1;PMS_P2;Temp;Humidity;BMP_temperature;BMP_pressure;BME280_temperature;BME280_humidity;BME280_pressure;Samples;Min_cycle;Max_cycle;Signal;HPM_P1;HPM_P2
2023/01/09 00:02:08;;;;;;;4.15;1.50;;;;;;;6.46;100.00;99450.31;5023884;28;20497;-75
2023/01/09 00:04:33;;;;;;;8.32;1.77;;;;;;;6.41;100.00;99452.81;5020352;28;20131;-76
2023/01/09 00:06:59;;;;;;;6.32;1.85;;;;;;;6.42;100.00;99449.06;5022444;28;20033;-76
2023/01/09 00:09:24;;;;;;;7.20;1.77;;;;;;;6.40;100.00;99445.72;5021179;28;20041;-77
2023/01/09 00:11:51;;;;;;;5.57;1.50;;;;;;;6.40;100.00;99447.59;5023632;28;20044;-77
2023/01/09 00:14:17;;;;;;;4.93;1.85;;;;;;;6.42;100.00;99442.78;5024261;28;20484;-77
2023/01/09 00:16:43;;;;;;;3.47;1.60;;;;;;;6.36;100.00;99441.72;5019846;28;20405;-76
2023/01/09 00:19:09;;;;;;;2.55;1.35;;;;;;;6.35;100.00;99441.94;5022414;28;20048;-77
2023/01/09 00:21:36;;;;;;;9.82;1.75;;;;;;;6.34;100.00;99451.13;5020241;28;20535;-77
2023/01/09 00:24:01;;;;;;;5.57;1.83;;;;;;;6.24;100.00;99453.41;5022212;28;20030;-77
2023/01/09 00:26:27;;;;;;;16.80;2.83;;;;;;;6.21;100.00;99442.94;5020512;28;20025;-77
2023/01/09 00:28:53;;;;;;;4.55;1.73;;;;;;;6.19;100.00;99432.25;5029300;28;20104;-77
2023/01/09 00:31:19;;;;;;;4.75;1.60;;;;;;;6.18;100.00;99437.88;5021671;28;20033;-77
2023/01/09 00:33:53;;;;;;;6.20;2.28;;;;;;;6.18;100.00;99438.75;5025540;28;20091;-76
2023/01/09 00:36:18;;;;;;;6.38;2.88;;;;;;;6.17;100.00;99438.94;5028575;28;20635;-77
2023/01/09 00:38:43;;;;;;;4.90;1.92;;;;;;;6.14;100.00;99431.22;5023172;28;20109;-76
2023/01/09 00:41:15;;;;;;;4.78;2.17;;;;;;;6.12;100.00;99431.41;5027472;28;20041;-76
2023/01/09 00:43:45;;;;;;;5.72;2.15;;;;;;;6.08;100.00;99434.75;5027777;28;20049;-76
2023/01/09 00:46:13;;;;;;;5.30;2.10;;;;;;;6.00;100.00;99441.19;5031990;28;20032;-77
2023/01/09 00:48:41;;;;;;;8.68;2.50;;;;;;;6.01;100.00;99436.56;5022640;28;20032;-76
2023/01/09 00:51:07;;;;;;;9.18;2.15;;;;;;;5.97;100.00;99432.56;5024599;28;20025;-76
2023/01/09 00:53:36;;;;;;;9.70;2.03;;;;;;;5.99;100.00;99427.81;5021435;28;20067;-77
2023/01/09 00:56:05;;;;;;;3.97;2.20;;;;;;;5.92;100.00;99440.53;5027154;28;20025;-76
2023/01/09 00:58:33;;;;;;;8.05;2.20;;;;;;;5.96;100.00;99434.47;5028312;28;20404;-77
2023/01/09 01:00:59;;;;;;;8.38;2.72;;;;;;;5.94;100.00;99441.16;5025895;28;20037;-76
2023/01/09 01:03:24;;;;;;;5.77;2.37;;;;;;;5.95;100.00;99434.66;5022985;28;20034;-76
2023/01/09 01:08:34;;;;;;;5.32;2.80;;;;;;;6.03;100.00;99450.81;5023974;28;20032;-77
2023/01/09 01:11:04;;;;;;;10.80;2.97;;;;;;;6.01;100.00;99451.00;5028893;28;20455;-77
2023/01/09 01:13:30;;;;;;;10.40;2.55;;;;;;;6.02;100.00;99463.56;5027670;28;20044;-78
2023/01/09 01:15:56;;;;;;;10.68;3.38;;;;;;;6.02;100.00;99463.56;5027149;28;20061;-76
2023/01/09 01:18:23;;;;;;;12.40;3.05;;;;;;;5.95;100.00;99462.69;5024067;28;20113;-76
2023/01/09 01:20:48;;;;;;;9.43;3.67;;;;;;;5.99;100.00;99463.13;5026730;28;20091;-77
2023/01/09 01:23:14;;;;;;;10.13;3.45;;;;;;;6.00;100.00;99462.09;5026807;28;20496;-77
2023/01/09 01:25:41;;;;;;;8.88;3.28;;;;;;;5.87;100.00;99464.75;5023780;28;20064;-77
2023/01/09 01:28:07;;;;;;;14.65;3.40;;;;;;;5.91;100.00;99455.13;5024739;28;20033;-76
2023/01/09 01:30:37;;;;;;;10.07;3.25;;;;;;;5.92;100.00;99465.81;5025280;28;20440;-77
2023/01/09 01:33:02;;;;;;;8.45;3.35;;;;;;;5.96;100.00;99466.22;5025462;28;20378;-77
2023/01/09 01:35:27;;;;;;;15.60;3.35;;;;;;;5.95;100.00;99467.28;5022489;28;20032;-77
2023/01/09 01:37:53;;;;;;;9.20;3.30;;;;;;;6.06;100.00;99470.28;5028051;28;20053;-77
2023/01/09 01:40:18;;;;;;;8.20;3.00;;;;;;;6.09;100.00;99458.97;5024332;28;20037;-77
2023/01/09 01:42:49;;;;;;;10.52;3.25;;;;;;;6.13;100.00;99462.97;5027234;28;20120;-77
2023/01/09 01:45:27;;;;;;;9.88;3.20;;;;;;;6.11;100.00;99454.19;5020462;28;20049;-77
2023/01/09 01:47:55;;;;;;;;;;;;;;;6.18;100.00;99456.91;5024538;28;20040;-77
2023/01/09 01:50:30;;;;;;;13.15;4.38;;;;;;;6.06;100.00;99462.13;5025912;28;19975;-77
2023/01/09 01:53:19;;;;;;;10.13;3.92;;;;;;;6.07;100.00;99458.34;5027237;28;20025;-77
2023/01/09 01:56:00;;;;;;;9.20;3.50;;;;;;;6.01;100.00;99453.72;5023056;28;20061;-77
2023/01/09 01:58:26;;;;;;;13.43;3.80;;;;;;;5.98;100.00;99450.59;5022625;28;20084;-77
2023/01/09 02:00:52;;;;;;;7.95;3.70;;;;;;;5.98;100.00;99454.13;5025881;28;20119;-77
2023/01/09 02:03:22;;;;;;;11.80;4.00;;;;;;;6.00;100.00;99471.09;5027290;28;20069;-77
2023/01/09 02:05:48;;;;;;;13.07;4.90;;;;;;;5.90;100.00;99461.59;5023775;28;20021;-76
2023/01/09 02:08:13;;;;;;;13.60;4.43;;;;;;;5.92;100.00;99456.84;5024591;28;20040;-77
2023/01/09 02:10:39;;;;;;;11.75;3.45;;;;;;;5.90;100.00;99451.59;5023095;28;20500;-77
2023/01/09 02:13:06;;;;;;;13.10;3.70;;;;;;;5.91;100.00;99460.56;5023169;28;20044;-76
2023/01/09 02:15:57;;;;;;;7.50;4.00;;;;;;;5.94;100.00;99466.44;5024595;28;20036;-77
2023/01/09 02:18:58;;;;;;;16.10;4.97;;;;;;;5.90;100.00;99457.03;5024620;28;20033;-76
2023/01/09 02:21:23;;;;;;;9.27;4.43;;;;;;;5.86;100.00;99460.31;5020778;28;20109;-76
2023/01/09 02:24:06;;;;;;;20.38;4.32;;;;;;;5.82;100.00;99461.78;5025253;28;20452;-78
2023/01/09 02:27:11;;;;;;;10.20;3.47;;;;;;;5.74;100.00;99462.75;5056493;28;20033;-77
2023/01/09 02:29:59;;;;;;;6.82;2.85;;;;;;;5.70;100.00;99460.63;5024078;28;20394;-76
2023/01/09 02:33:04;;;;;;;13.75;3.03;;;;;;;5.67;100.00;99453.72;5025379;28;20029;-77
2023/01/09 02:35:52;;;;;;;9.38;2.90;;;;;;;5.64;100.00;99453.28;5021831;28;20457;-77
2023/01/09 02:38:48;;;;;;;12.13;3.20;;;;;;;5.57;100.00;99450.53;5023264;28;20029;-77
2023/01/09 02:41:22;;;;;;;14.45;2.78;;;;;;;5.65;100.00;99450.38;5022248;28;20038;-77
2023/01/09 02:44:17;;;;;;;10.00;3.53;;;;;;;5.55;100.00;99451.78;5028081;28;20049;-77
2023/01/09 02:46:43;;;;;;;5.20;2.38;;;;;;;5.59;100.00;99461.19;5026174;28;20044;-77
2023/01/09 02:49:09;;;;;;;11.93;2.92;;;;;;;5.56;100.00;99457.00;5026550;28;20037;-76
2023/01/09 02:52:02;;;;;;;9.90;2.83;;;;;;;5.55;100.00;99451.78;5023548;28;20220;-77
2023/01/09 02:54:58;;;;;;;11.23;3.40;;;;;;;5.49;100.00;99460.69;5023559;28;20017;-77
2023/01/09 02:57:31;;;;;;;7.18;2.38;;;;;;;5.44;100.00;99458.59;5025123;28;20025;-77
2023/01/09 02:59:59;;;;;;;9.85;2.88;;;;;;;5.38;100.00;99455.81;5015113;28;20061;-77
2023/01/09 03:02:33;;;;;;;8.82;2.72;;;;;;;5.48;100.00;99461.75;5023638;28;20034;-76
2023/01/09 03:05:09;;;;;;;13.25;3.92;;;;;;;5.34;100.00;99463.53;5023513;28;20065;-77
2023/01/09 03:07:49;;;;;;;8.35;2.97;;;;;;;5.39;100.00;99454.81;5023082;28;20849;-77
2023/01/09 03:10:20;;;;;;;10.93;3.28;;;;;;;5.37;100.00;99462.28;5022685;28;20131;-77
2023/01/09 03:12:50;;;;;;;9.40;2.85;;;;;;;5.33;100.00;99453.72;5023471;28;20491;-77
2023/01/09 03:15:19;;;;;;;10.35;2.97;;;;;;;5.39;100.00;99457.53;5025071;28;20464;-77
2023/01/09 03:17:48;;;;;;;18.10;3.00;;;;;;;5.35;100.00;99451.63;5027579;28;20118;-77
2023/01/09 03:20:20;;;;;;;10.52;3.08;;;;;;;5.42;100.00;99444.38;5038717;28;20059;-77
2023/01/09 03:23:02;;;;;;;6.13;2.80;;;;;;;5.39;100.00;99443.94;5023580;28;20025;-76
2023/01/09 03:25:29;;;;;;;9.90;2.67;;;;;;;5.32;100.00;99434.91;5020522;28;20069;-77
2023/01/09 03:27:57;;;;;;;8.45;3.00;;;;;;;5.25;100.00;99431.31;5025849;28;20108;-77
2023/01/09 03:30:24;;;;;;;10.20;3.20;;;;;;;5.23;100.00;99431.50;5021885;28;20055;-77
2023/01/09 03:32:49;;;;;;;6.40;2.97;;;;;;;5.24;100.00;99426.94;5025170;28;20040;-77
2023/01/09 03:35:14;;;;;;;6.78;2.97;;;;;;;5.19;100.00;99426.69;5023305;28;20456;-76
2023/01/09 03:37:40;;;;;;;10.73;2.78;;;;;;;5.21;100.00;99419.16;5026689;28;20083;-77
2023/01/09 03:40:06;;;;;;;13.05;3.00;;;;;;;5.28;100.00;99426.31;5021248;28;20037;-75
2023/01/09 03:42:32;;;;;;;13.38;2.78;;;;;;;5.38;100.00;99423.25;5020782;28;20033;-75
2023/01/09 03:44:58;;;;;;;9.05;2.70;;;;;;;5.40;100.00;99424.72;5028389;28;20041;-75
2023/01/09 03:47:23;;;;;;;11.02;3.35;;;;;;;5.42;100.00;99427.25;5023969;28;20622;-73
2023/01/09 03:49:48;;;;;;;11.15;3.30;;;;;;;5.48;100.00;99426.44;5023123;28;20021;-74
2023/01/09 03:52:14;;;;;;;11.85;2.83;;;;;;;5.51;100.00;99426.06;5025408;28;20436;-74
2023/01/09 03:54:39;;;;;;;12.57;2.60;;;;;;;5.45;100.00;99429.56;5018778;28;20053;-74
2023/01/09 03:57:05;;;;;;;8.65;2.42;;;;;;;5.52;100.00;99428.56;5020015;28;20032;-75
2023/01/09 03:59:30;;;;;;;10.00;2.90;;;;;;;5.50;100.00;99419.78;5025554;28;20038;-75
2023/01/09 04:01:56;;;;;;;15.27;2.90;;;;;;;5.57;100.00;99427.97;5023860;28;20439;-75
2023/01/09 04:04:21;;;;;;;11.68;2.78;;;;;;;5.59;100.00;99431.31;5023349;28;20132;-75
2023/01/09 04:06:46;;;;;;;9.40;2.55;;;;;;;5.64;100.00;99426.97;5024435;28;20025;-75
2023/01/09 04:09:12;;;;;;;9.25;2.88;;;;;;;5.61;100.00;99429.25;5023126;28;20029;-75
2023/01/09 04:11:37;;;;;;;13.40;2.92;;;;;;;5.63;100.00;99428.00;5022991;28;20030;-75
2023/01/09 04:14:02;;;;;;;12.50;2.60;;;;;;;5.61;100.00;99427.34;5023082;28;20173;-75
2023/01/09 04:16:28;;;;;;;16.42;2.97;;;;;;;5.65;100.00;99417.78;5021382;28;20112;-75
2023/01/09 04:18:53;;;;;;;7.35;2.53;;;;;;;5.70;100.00;99417.16;5023783;28;20044;-75
2023/01/09 04:21:19;;;;;;;8.73;2.75;;;;;;;5.68;100.00;99416.53;5026625;28;20040;-75
2023/01/09 04:23:44;;;;;;;11.25;3.08;;;;;;;5.73;100.00;99414.06;5023959;28;20057;-75
2023/01/09 04:26:10;;;;;;;15.27;2.53;;;;;;;5.74;100.00;99410.28;5025296;28;20025;-75
2023/01/09 04:28:35;;;;;;;7.72;2.67;;;;;;;5.76;100.00;99410.94;5026271;28;20450;-75
2023/01/09 04:31:01;;;;;;;8.90;2.58;;;;;;;5.75;100.00;99415.53;5019551;28;20037;-75
2023/01/09 04:33:27;;;;;;;11.30;2.70;;;;;;;5.82;100.00;99404.75;5021760;28;20079;-74
2023/01/09 04:35:52;;;;;;;11.67;2.27;;;;;;;5.83;100.00;99398.25;5021081;28;20095;-75
2023/01/09 04:38:18;;;;;;;13.50;2.42;;;;;;;5.83;100.00;99411.84;5028138;28;20696;-75
2023/01/09 04:40:47;;;;;;;10.35;2.38;;;;;;;5.87;100.00;99407.69;5023737;28;20079;-75
2023/01/09 04:43:13;;;;;;;9.07;2.78;;;;;;;5.88;100.00;99401.22;5019810;28;20021;-75
2023/01/09 04:45:39;;;;;;;6.75;2.15;;;;;;;6.04;100.00;99398.13;5027138;28;20076;-75
2023/01/09 04:48:04;;;;;;;6.72;2.35;;;;;;;6.04;100.00;99396.25;5023220;28;20481;-75
2023/01/09 04:50:30;;;;;;;10.63;2.72;;;;;;;6.06;100.00;99394.16;5017404;28;20037;-75
2023/01/09 04:52:56;;;;;;;11.02;2.38;;;;;;;6.06;100.00;99394.16;5024382;28;20029;-75
2023/01/09 04:55:22;;;;;;;9.50;2.20;;;;;;;6.04;100.00;99389.97;5020382;28;20036;-75
2023/01/09 04:57:47;;;;;;;10.98;2.97;;;;;;;6.09;100.00;99382.06;5024439;28;20026;-75
2023/01/09 05:00:14;;;;;;;7.47;1.90;;;;;;;6.05;100.00;99384.34;5025735;28;20374;-75
2023/01/09 05:02:39;;;;;;;4.22;1.70;;;;;;;6.13;100.00;99389.59;5024275;28;20033;-75
2023/01/09 05:05:06;;;;;;;9.57;2.10;;;;;;;6.17;100.00;99382.69;5010729;28;20044;-75
2023/01/09 05:07:32;;;;;;;5.47;2.25;;;;;;;6.12;100.00;99387.06;5023995;28;20030;-75
2023/01/09 05:09:57;;;;;;;4.95;2.30;;;;;;;6.13;100.00;99383.28;5022596;28;20025;-75
2023/01/09 05:12:23;;;;;;;6.15;2.08;;;;;;;6.23;100.00;99375.59;5019874;28;20156;-75
2023/01/09 05:14:48;;;;;;;9.90;2.30;;;;;;;6.18;100.00;99378.94;5021920;28;20071;-75
2023/01/09 05:17:14;;;;;;;9.65;2.60;;;;;;;6.13;100.00;99383.28;5025326;28;20033;-75
2023/01/09 05:19:41;;;;;;;6.70;2.33;;;;;;;6.12;100.00;99381.63;5025771;28;20025;-75
2023/01/09 05:22:07;;;;;;;7.40;2.38;;;;;;;6.12;100.00;99389.78;5030076;28;20033;-75
2023/01/09 05:24:32;;;;;;;10.95;1.98;;;;;;;6.18;100.00;99375.38;5026731;28;20029;-75
2023/01/09 05:26:57;;;;;;;8.75;2.72;;;;;;;6.24;100.00;99385.44;5025393;28;20072;-75
2023/01/09 05:29:23;;;;;;;9.13;3.15;;;;;;;6.21;100.00;99375.81;5024384;28;20022;-75
2023/01/09 05:31:48;;;;;;;8.40;2.65;;;;;;;6.28;100.00;99378.53;5026377;28;20040;-75
2023/01/09 05:34:14;;;;;;;7.57;2.58;;;;;;;6.38;100.00;99370.81;5023714;28;20025;-75
2023/01/09 05:36:39;;;;;;;9.13;2.53;;;;;;;6.34;100.00;99374.97;5042978;28;20033;-75
2023/01/09 05:39:05;;;;;;;11.05;2.92;;;;;;;6.31;100.00;99380.84;5025197;28;20033;-75
2023/01/09 05:41:30;;;;;;;9.77;2.85;;;;;;;6.38;100.00;99378.97;5022004;28;20448;-75
2023/01/09 05:43:56;;;;;;;14.60;2.72;;;;;;;6.41;100.00;99382.13;5006349;28;20114;-75
2023/01/09 05:46:22;;;;;;;9.50;2.40;;;;;;;6.49;100.00;99375.66;5025096;28;20124;-75
2023/01/09 05:48:47;;;;;;;9.77;2.40;;;;;;;6.49;100.00;99373.78;5020752;28;20042;-75
2023/01/09 05:51:12;;;;;;;12.50;2.42;;;;;;;6.51;100.00;99377.09;5026755;28;20026;-75
2023/01/09 05:53:38;;;;;;;9.95;2.55;;;;;;;6.53;100.00;99371.47;5024110;28;20105;-75
2023/01/09 05:56:03;;;;;;;8.90;2.58;;;;;;;6.51;100.00;99371.66;5024153;28;20022;-74
2023/01/09 05:58:29;;;;;;;13.60;2.72;;;;;;;6.51;100.00;99374.41;5026804;28;20024;-75
2023/01/09 06:00:54;;;;;;;11.38;2.15;;;;;;;6.55;100.00;99377.53;5028675;28;20170;-75
2023/01/09 06:03:20;;;;;;;11.13;2.38;;;;;;;6.53;100.00;99374.19;5027671;28;20071;-75
2023/01/09 06:05:46;;;;;;;11.55;3.72;;;;;;;6.55;100.00;99385.69;5020008;28;20037;-75
2023/01/09 06:08:11;;;;;;;17.05;2.70;;;;;;;6.53;100.00;99375.03;5025830;28;20460;-75
2023/01/09 06:10:36;;;;;;;11.63;2.55;;;;;;;6.52;100.00;99372.53;5023056;28;20108;-74
2023/01/09 06:13:02;;;;;;;7.57;2.55;;;;;;;6.53;100.00;99377.75;5021910;28;20485;-74
2023/01/09 06:15:28;;;;;;;12.45;3.20;;;;;;;6.50;100.00;99378.16;5024872;28;20044;-74
2023/01/09 06:17:53;;;;;;;14.15;2.60;;;;;;;6.51;100.00;99379.00;5023302;28;20037;-75
2023/01/09 06:20:19;;;;;;;7.88;2.83;;;;;;;6.56;100.00;99384.66;5026881;28;20528;-74
2023/01/09 06:22:44;;;;;;;9.95;2.67;;;;;;;6.56;100.00;99377.31;5026603;28;20104;-74
2023/01/09 06:25:10;;;;;;;12.55;3.13;;;;;;;6.57;100.00;99383.63;5025400;28;20042;-75
2023/01/09 06:27:36;;;;;;;10.57;2.55;;;;;;;6.59;100.00;99384.25;5024257;28;20097;-75
2023/01/09 06:30:01;;;;;;;9.80;3.08;;;;;;;6.63;100.00;99393.66;5023689;28;20041;-75
2023/01/09 06:32:27;;;;;;;12.77;3.80;;;;;;;6.60;100.00;99396.78;5019677;28;20057;-75
2023/01/09 06:34:52;;;;;;;7.20;3.22;;;;;;;6.54;100.00;99386.75;5025470;28;20022;-75
2023/01/09 06:37:18;;;;;;;10.95;3.00;;;;;;;6.50;100.00;99397.19;5027974;28;20041;-75
2023/01/09 06:39:43;;;;;;;12.80;3.33;;;;;;;6.48;100.00;99384.84;5023250;28;20037;-75
2023/01/09 06:42:08;;;;;;;13.75;3.38;;;;;;;6.56;100.00;99395.56;5029853;28;20112;-75
2023/01/09 06:44:35;;;;;;;8.23;2.63;;;;;;;6.54;100.00;99392.19;5027719;28;20025;-74
2023/01/09 06:47:02;;;;;;;8.95;2.78;;;;;;;6.52;100.00;99397.81;5023491;28;20500;-75
2023/01/09 06:49:27;;;;;;;17.73;3.95;;;;;;;6.50;100.00;99397.19;5027160;28;20499;-74
2023/01/09 06:51:52;;;;;;;8.15;3.42;;;;;;;6.51;100.00;99411.66;5022603;28;20091;-74
2023/01/09 06:54:18;;;;;;;13.38;4.30;;;;;;;6.46;100.00;99414.97;5024603;28;20080;-75
2023/01/09 06:56:44;;;;;;;5.83;3.20;;;;;;;6.50;100.00;99423.53;5023582;28;20073;-74
2023/01/09 06:59:10;;;;;;;8.02;3.33;;;;;;;6.49;100.00;99425.44;5026946;28;20432;-74
2023/01/09 07:01:38;;;;;;;9.30;2.28;;;;;;;6.49;100.00;99435.47;5026968;28;20025;-74
2023/01/09 07:04:04;;;;;;;8.40;2.20;;;;;;;6.47;100.00;99456.63;5023250;28;20136;-75
2023/01/09 07:06:30;;;;;;;5.88;1.75;;;;;;;6.49;100.00;99451.78;5022242;28;20045;-74
2023/01/09 07:08:55;;;;;;;10.05;3.00;;;;;;;6.50;100.00;99459.75;5024486;28;20037;-74
2023/01/09 07:11:20;;;;;;;9.38;2.40;;;;;;;6.45;100.00;99454.09;5021609;28;20029;-74
2023/01/09 07:13:46;;;;;;;13.23;2.38;;;;;;;6.44;100.00;99467.88;5028170;28;20018;-74
2023/01/09 07:16:11;;;;;;;3.17;1.33;;;;;;;6.48;100.00;99458.28;5026864;28;20362;-74
2023/01/09 07:18:37;;;;;;;5.05;1.65;;;;;;;6.46;100.00;99468.53;5027096;28;20441;-74
2023/01/09 07:21:05;;;;;;;5.97;1.88;;;;;;;6.48;100.00;99466.44;5024564;28;20074;-74
2023/01/09 07:23:30;;;;;;;10.50;1.88;;;;;;;6.52;100.00;99471.25;5025435;28;20100;-74
2023/01/09 07:25:57;;;;;;;8.18;1.90;;;;;;;6.48;100.00;99472.72;5049011;28;20120;-74
2023/01/09 07:28:22;;;;;;;7.28;2.03;;;;;;;6.50;100.00;99486.09;5024224;28;20031;-75
2023/01/09 07:30:48;;;;;;;5.97;1.55;;;;;;;6.51;100.00;99490.53;5026901;28;20037;-75
2023/01/09 07:33:13;;;;;;;4.95;1.63;;;;;;;6.50;100.00;99488.81;5024545;28;20040;-74
2023/01/09 07:35:39;;;;;;;3.33;1.40;;;;;;;6.50;100.00;99496.97;5025297;28;20032;-74
2023/01/09 07:38:04;;;;;;;3.33;1.13;;;;;;;6.50;100.00;99505.16;5019861;28;20087;-75
2023/01/09 07:40:29;;;;;;;7.18;1.13;;;;;;;6.49;100.00;99511.63;5025292;28;20025;-75
2023/01/09 07:42:55;;;;;;;4.18;1.20;;;;;;;6.48;100.00;99512.69;5022597;28;20495;-75
2023/01/09 07:45:20;;;;;;;6.13;1.40;;;;;;;6.62;100.00;99512.50;5023863;28;20111;-75
2023/01/09 07:47:46;;;;;;;4.63;1.50;;;;;;;6.64;100.00;99515.03;5021381;28;20124;-74
2023/01/09 07:50:11;;;;;;;7.65;1.40;;;;;;;6.67;100.00;99526.34;5029919;28;20051;-74
2023/01/09 07:52:37;;;;;;;6.60;1.35;;;;;;;6.65;100.00;99525.72;5024225;28;20087;-75
2023/01/09 07:55:02;;;;;;;10.60;2.55;;;;;;;6.68;100.00;99538.06;5023375;28;20060;-75
2023/01/09 07:57:29;;;;;;;9.52;1.40;;;;;;;6.72;100.00;99547.50;5028221;28;20048;-75
2023/01/09 07:59:55;;;;;;;9.60;1.85;;;;;;;6.75;100.00;99552.53;5019878;28;20039;-74
2023/01/09 08:02:20;;;;;;;16.35;1.80;;;;;;;6.77;100.00;99551.28;5020515;28;20025;-75
2023/01/09 08:04:45;;;;;;;8.90;1.58;;;;;;;6.73;100.00;99552.72;5012757;28;20489;-75
2023/01/09 08:07:11;;;;;;;10.20;1.83;;;;;;;6.75;100.00;99564.28;5012756;28;20036;-75
2023/01/09 08:09:36;;;;;;;11.48;1.38;;;;;;;6.77;100.00;99569.47;5025027;28;20033;-75
2023/01/09 08:12:03;;;;;;;10.02;1.42;;;;;;;6.79;100.00;99578.28;5019486;28;20034;-75
2023/01/09 08:14:28;;;;;;;10.45;1.63;;;;;;;6.76;100.00;99592.28;5020207;28;20055;-75
2023/01/09 08:16:54;;;;;;;11.32;2.05;;;;;;;6.75;100.00;99587.91;5022330;28;20045;-76
2023/01/09 08:19:19;;;;;;;10.35;1.40;;;;;;;6.78;100.00;99582.88;5025753;28;20043;-75
2023/01/09 08:21:44;;;;;;;10.23;2.60;;;;;;;6.80;100.00;99597.16;5022012;28;20043;-74
2023/01/09 08:24:10;;;;;;;10.82;2.30;;;;;;;6.82;100.00;99596.91;5024887;28;20032;-74
2023/01/09 08:26:35;;;;;;;9.30;1.38;;;;;;;6.79;100.00;99602.78;5025486;28;20052;-75
2023/01/09 08:29:01;;;;;;;11.25;1.77;;;;;;;6.89;100.00;99609.50;5020560;28;20021;-75
2023/01/09 08:31:26;;;;;;;15.82;2.45;;;;;;;6.88;100.00;99617.91;5021293;28;20049;-74
2023/01/09 08:33:51;;;;;;;16.20;2.53;;;;;;;6.90;100.00;99621.25;5025301;28;20075;-74
2023/01/09 08:36:17;;;;;;;13.85;2.47;;;;;;;6.93;100.00;99626.28;5024428;28;20033;-76
2023/01/09 08:38:42;;;;;;;21.23;2.20;;;;;;;7.00;100.00;99633.41;5020031;28;20532;-74
2023/01/09 08:49:20;;;;;;;16.15;2.75;;;;;;;7.14;100.00;99662.38;5022752;28;20125;-75
2023/01/09 08:51:45;;;;;;;26.33;3.33;;;;;;;7.12;100.00;99663.63;5025281;28;20108;-74
2023/01/09 08:54:11;;;;;;;17.85;2.47;;;;;;;7.12;100.00;99674.53;5024292;28;20511;-75
2023/01/09 08:56:36;;;;;;;18.80;2.63;;;;;;;7.11;100.00;99676.38;5019417;28;20026;-74
2023/01/09 08:59:02;;;;;;;28.02;2.67;;;;;;;7.17;100.00;99680.19;5024159;28;20056;-75
2023/01/09 09:01:27;;;;;;;15.68;2.42;;;;;;;7.15;100.00;99679.56;5028315;28;20660;-74
2023/01/09 09:03:53;;;;;;;15.05;2.42;;;;;;;7.13;100.00;99682.50;5028342;28;20681;-74
2023/01/09 09:06:18;;;;;;;16.70;1.95;;;;;;;7.07;100.00;99677.88;5029409;28;20112;-74
2023/01/09 09:08:43;;;;;;;16.52;2.95;;;;;;;7.07;100.00;99685.19;5026199;28;20104;-74
2023/01/09 09:11:09;;;;;;;10.73;3.22;;;;;;;7.04;100.00;99694.59;5024995;28;20407;-75
2023/01/09 09:13:34;;;;;;;8.82;1.40;;;;;;;7.08;100.00;99703.19;5026653;28;20080;-75
2023/01/09 09:15:59;;;;;;;14.95;3.03;;;;;;;7.09;100.00;99708.44;5020771;28;20547;-75
2023/01/09 09:18:25;;;;;;;7.15;2.40;;;;;;;7.12;100.00;99718.09;5023456;28;20064;-75
2023/01/09 09:20:50;;;;;;;9.45;1.40;;;;;;;7.14;100.00;99716.84;5029490;28;20030;-74
2023/01/09 09:23:16;;;;;;;12.00;2.00;;;;;;;7.14;100.00;99726.88;5023568;28;20362;-75
2023/01/09 09:25:41;;;;;;;14.80;2.58;;;;;;;7.09;100.00;99734.81;5026312;28;20060;-75
2023/01/09 09:28:06;;;;;;;14.77;2.47;;;;;;;7.13;100.00;99730.66;5023498;28;20021;-74
2023/01/09 09:30:32;;;;;;;9.50;1.88;;;;;;;7.09;100.00;99734.81;5021819;28;20154;-75
2023/01/09 09:32:57;;;;;;;6.72;1.83;;;;;;;7.10;100.00;99736.50;5026517;28;20108;-75
2023/01/09 09:35:23;;;;;;;14.93;2.75;;;;;;;7.10;100.00;99756.41;5024941;28;20013;-75
2023/01/09 09:37:57;;;;;;;9.05;2.75;;;;;;;7.19;100.00;99757.06;5023227;28;20065;-75
2023/01/09 09:40:54;;;;;;;12.35;2.00;;;;;;;7.28;100.00;99766.75;5021045;28;20026;-75
2023/01/09 09:47:40;;;;;;;7.22;1.88;;;;;;;7.37;100.00;99771.00;5005295;28;20053;-75
2023/01/09 09:50:19;;;;;;;9.77;1.77;;;;;;;7.39;100.00;99782.50;4991172;28;20045;-74
2023/01/09 09:52:50;;;;;;;11.63;3.25;;;;;;;7.42;100.00;99784.84;5020172;28;20125;-74
2023/01/09 09:55:33;;;;;;;12.23;2.55;;;;;;;7.46;100.00;99797.84;5024738;28;20028;-75
2023/01/09 09:58:03;;;;;;;13.77;2.42;;;;;;;7.48;100.00;99797.66;5030548;28;20091;-76
2023/01/09 10:00:29;;;;;;;11.15;2.88;;;;;;;7.53;100.00;99803.34;5025387;28;20473;-76
2023/01/09 10:03:02;;;;;;;10.40;2.00;;;;;;;7.60;100.00;99813.22;5027431;28;20037;-76
2023/01/09 10:05:36;;;;;;;17.65;2.88;;;;;;;7.65;100.00;99829.81;5025620;28;20021;-75
2023/01/09 10:08:09;;;;;;;20.70;2.90;;;;;;;7.64;100.00;99830.81;5026127;28;20503;-75
2023/01/09 10:10:49;;;;;;;12.18;2.25;;;;;;;7.55;100.00;99829.34;5029443;28;20025;-74
2023/01/09 10:16:08;;;;;;;18.30;2.05;;;;;;;7.41;100.00;99837.63;5030164;28;20031;-75
2023/01/09 10:19:35;;;;;;;17.70;2.65;;;;;;;7.38;100.00;99851.66;5025047;28;20032;-74
2023/01/09 10:22:37;;;;;;;19.02;3.22;;;;;;;7.47;100.00;99859.47;5018362;28;20152;-74
2023/01/09 10:25:06;;;;;;;12.55;2.88;;;;;;;7.63;100.00;99848.22;5034275;28;20061;-74
2023/01/09 10:27:56;;;;;;;13.70;3.33;;;;;;;7.73;100.00;99858.72;5027919;28;20029;-75
2023/01/09 10:30:42;;;;;;;10.45;2.58;;;;;;;7.74;100.00;99866.72;5025960;28;20018;-75
2023/01/09 10:33:41;;;;;;;18.30;2.42;;;;;;;7.78;100.00;99872.59;5025305;28;20031;-75
2023/01/09 10:36:28;;;;;;;18.30;2.28;;;;;;;7.79;100.00;99872.41;5022244;28;20533;-75
2023/01/09 10:38:58;;;;;;;16.92;3.30;;;;;;;7.87;100.00;99883.16;5019121;28;20061;-75
2023/01/09 10:41:30;;;;;;;13.35;2.80;;;;;;;7.83;100.00;99881.00;5019999;28;20026;-75
2023/01/09 10:44:03;;;;;;;20.65;2.65;;;;;;;7.90;100.00;99881.91;5017873;28;20627;-75
2023/01/09 10:46:42;;;;;;;11.93;2.50;;;;;;;7.96;100.00;99886.53;5025590;28;20046;-75
2023/01/09 10:49:14;;;;;;;18.90;2.42;;;;;;;7.91;100.00;99889.03;5019382;28;20021;-75
2023/01/09 10:52:09;;;;;;;14.93;2.88;;;;;;;7.96;100.00;99892.81;5025719;28;20518;-74
2023/01/09 10:54:41;;;;;;;19.67;2.72;;;;;;;7.94;100.00;99894.06;5025282;28;20025;-75
2023/01/09 10:57:15;;;;;;;24.00;2.88;;;;;;;7.95;100.00;99893.84;5018628;28;20038;-75
2023/01/09 10:59:41;;;;;;;16.23;3.20;;;;;;;7.98;100.00;99898.06;5025487;28;20026;-75
2023/01/09 11:02:35;;;;;;;20.30;2.63;;;;;;;8.03;100.00;99898.28;5026520;28;20029;-75
2023/01/09 11:05:01;;;;;;;21.33;2.65;;;;;;;7.97;100.00;99901.84;5015558;28;20454;-74
2023/01/09 11:07:31;;;;;;;25.15;3.22;;;;;;;7.97;100.00;99902.69;5019515;28;20037;-75
2023/01/09 11:09:59;;;;;;;12.77;2.67;;;;;;;8.06;100.00;99904.16;5018468;28;20040;-75
2023/01/09 11:12:27;;;;;;;14.63;3.30;;;;;;;8.04;100.00;99899.97;5019051;28;20029;-75
2023/01/09 11:14:52;;;;;;;13.40;2.70;;;;;;;8.23;100.00;99899.25;5025279;28;20018;-75
2023/01/09 11:17:21;;;;;;;11.85;2.10;;;;;;;8.50;100.00;99895.53;5023397;28;20087;-75
2023/01/09 11:20:01;;;;;;;17.17;2.88;;;;;;;8.71;100.00;99906.25;5026714;28;20489;-75
2023/01/09 11:22:27;;;;;;;15.10;2.97;;;;;;;8.75;100.00;99902.91;5022984;28;20120;-75
2023/01/09 11:25:02;;;;;;;18.38;2.88;;;;;;;8.76;100.00;99917.41;5022268;28;20120;-75
2023/01/09 11:27:27;;;;;;;25.70;3.47;;;;;;;8.75;100.00;99915.72;5022323;28;20480;-76
2023/01/09 11:30:04;;;;;;;14.07;2.50;;;;;;;8.64;100.00;99919.91;5028372;28;20029;-75
2023/01/09 11:32:31;;;;;;;15.07;2.50;;;;;;;8.57;100.00;99929.97;5022374;28;20088;-75
2023/01/09 11:34:56;;;;;;;17.15;3.25;;;;;;;8.45;100.00;99930.78;5022827;28;20022;-75
2023/01/09 11:37:28;;;;;;;18.50;2.80;;;;;;;8.35;100.00;99930.31;5023615;28;20067;-75
2023/01/09 11:39:56;;;;;;;15.23;2.25;;;;;;;8.34;100.00;99934.09;5019193;28;20029;-75
2023/01/09 11:45:23;;;;;;;12.65;2.42;;;;;;;8.35;100.00;99941.25;5026526;28;20084;-75
2023/01/09 11:47:49;;;;;;;15.02;2.67;;;;;;;8.41;100.00;99937.69;5015099;28;20042;-75
2023/01/09 11:50:22;;;;;;;9.75;2.58;;;;;;;8.62;100.00;99945.72;5023738;28;20152;-75
2023/01/09 11:53:15;;;;;;;22.88;2.80;;;;;;;8.68;100.00;99958.53;5019486;28;20023;-75
2023/01/09 11:55:42;;;;;;;8.52;2.10;;;;;;;8.72;100.00;99944.28;5017483;28;20147;-76
2023/01/09 11:58:17;;;;;;;21.10;2.80;;;;;;;8.76;100.00;99952.91;5020542;28;20744;-75
2023/01/09 12:00:57;;;;;;;16.23;3.30;;;;;;;8.76;100.00;99953.72;5023383;28;20029;-75